Radar AviationWeather DUATS TFRs Wunderground Accuweather Weather.com

alt : Radar

TAFs

KCLE 081546Z 0816/0918 26008KT 2SM -SN BR OVC008
     TEMPO 0816/0820 1/2SM SN FZFG OVC003
   FM082000 28008KT 3SM -SN BR SCT006 OVC012
   FM090000 26005KT 5SM BR OVC012
KCLE 081546Z 0816/0918 26008KT 2SM -SN BR OVC008
     TEMPO 0816/0820 1/2SM SN FZFG OVC003
   FM082000 28008KT 3SM -SN BR SCT006 OVC012
   FM090000 26005KT 5SM BR OVC012
KFDY 081504Z 0815/0912 25005KT P6SM SCT050 BKN090
   FM082000 28010KT 6SM BR SCT025 OVC035
   FM090200 29009KT P6SM VCSH SCT015 OVC025
KTOL 081504Z 0815/0912 28005KT P6SM SCT050 OVC100
   FM082000 28008KT 5SM BR SCT025 OVC035
   FM090700 27008KT P6SM OVC025
KDTW 081443Z 0815/0918 27005KT P6SM SCT040 BKN120
   FM081800 31006KT P6SM OVC040
   FM090100 30007KT 6SM -SHSN OVC030
   FM090800 27005KT 4SM -SHSN BR OVC015
   FM091400 30010KT P6SM BKN025 OVC040
KFWA 081438Z 0815/0912 25008KT P6SM SCT040 OVC080
   FM081800 28010KT P6SM BKN040
   FM090200 28010KT P6SM VCSH OVC025
   FM090900 29012KT 3SM -SHSN OVC015
KJXN 081153Z 0812/0912 22004KT P6SM SCT015
   FM081700 27006KT 6SM -SHSN OVC015
   FM082000 28008KT P6SM -SHSN OVC015
   FM090300 29009KT 6SM -SHSN OVC015
   FM090900 30010KT 5SM -SHSN BR OVC009

METARs

KDUH 081635Z AUTO 31004KT 10SM SCT120 03/00 A2961 RMK AO2 T00331005
KJXN 081619Z 29007KT 10SM BKN014 02/M02 A2961 RMK AO2 T00221017
KFWA 081554Z 26008KT 10SM FEW033 BKN048 BKN100 01/M02 A2965 RMK AO2 SNB00E40 SLP046 P0000 T00111017
KDTW 081553Z 30005KT 10SM OVC095 04/M01 A2961 RMK AO2 SLP031 T00391011
KFDY 081553Z AUTO 29009KT 10SM SCT095 05/M01 A2960 RMK AO2 SLP023 T00501006 TSNO
KTDZ 081553Z AUTO 29006KT 10SM OVC095 03/M02 A2962 RMK AO2 SLP033 T00331017
KTOL 081552Z 29009KT 10SM BKN095 OVC120 02/M02 A2961 RMK AO2 SLP031 T00221017
KCLE 081551Z 00000KT 1/2SM SN FG SCT004 OVC008 01/M01 A2963 RMK AO2 RAE25SNB12 SLP039 P0010 T00061006

alt : Satellite

alt : TFRs